Time;durP1;ratioP1;P1;durP2;ratioP2;P2;SDS_P1;SDS_P2;PMS_P1;PMS_P2;Temp;Humidity;BMP_temperature;BMP_pressure;BME280_temperature;BME280_humidity;BME280_pressure;Samples;Min_cycle;Max_cycle;Signal;HPM_P1;HPM_P2
2022/05/31 00:02:06;;;;;;;;;;;;;;;8.94;100.00;98884.94;5154845;27;19930;-61
2022/05/31 00:04:32;;;;;;;;;;;;;;;8.97;100.00;98876.03;5154848;27;19948;-61
2022/05/31 00:06:58;;;;;;;;;;;;;;;8.87;100.00;98873.88;5154400;27;19927;-60
2022/05/31 00:09:25;;;;;;;;;;;;;;;8.88;100.00;98869.97;5154593;27;20338;-60
2022/05/31 00:11:51;;;;;;;;;;;;;;;8.79;100.00;98881.13;5154340;27;19967;-60
2022/05/31 00:14:18;;;;;;;;;;;;;;;8.65;100.00;98878.09;5154667;27;20400;-61
2022/05/31 00:16:45;;;;;;;;;;;;;;;8.74;100.00;98881.44;5154483;27;20381;-60
2022/05/31 00:19:12;;;;;;;;;;;;;;;8.71;100.00;98882.94;5154600;27;20404;-61
2022/05/31 00:21:41;;;;;;;;;;;;;;;8.61;100.00;98878.03;5154453;27;19923;-60
2022/05/31 00:24:08;;;;;;;;;;;;;;;8.54;100.00;98866.16;5154096;27;19976;-60
2022/05/31 00:26:34;;;;;;;;;;;;;;;8.54;100.00;98872.41;5153983;27;19959;-60
2022/05/31 00:29:00;;;;;;;;;;;;;;;8.60;100.00;98862.78;5154412;27;20010;-61
2022/05/31 00:31:27;;;;;;;;;;;;;;;8.61;100.00;98860.84;5154160;27;19923;-60
2022/05/31 00:33:53;;;;;;;;;;;;;;;8.51;100.00;98869.63;5154226;27;19923;-60
2022/05/31 00:36:19;;;;;;;;;;;;;;;8.58;100.00;98865.09;5154344;27;20240;-60
2022/05/31 00:38:45;;;;;;;;;;;;;;;8.45;100.00;98863.63;5154030;27;20003;-61
2022/05/31 00:41:23;;;;;;;;;;;;;;;8.42;100.00;98869.81;5153976;27;20305;-61
2022/05/31 00:43:49;;;;;;;;;;;;;;;8.48;100.00;98866.44;5153992;27;19923;-61
2022/05/31 00:46:17;;;;;;;;;;;;;;;8.35;100.00;98875.88;5154005;27;19923;-60
2022/05/31 00:48:47;;;;;;;;;;;;;;;8.44;100.00;98871.03;5153769;27;19930;-61
2022/05/31 00:51:14;;;;;;;;;;;;;;;8.54;100.00;98879.84;5153627;27;19923;-60
2022/05/31 00:53:43;;;;;;;;;;;;;;;8.54;100.00;98886.09;5153612;27;19923;-60
2022/05/31 00:56:11;;;;;;;;;;;;;;;8.52;100.00;98882.13;5153962;27;19923;-60
2022/05/31 00:58:40;;;;;;;;;;;;;;;8.52;100.00;98885.63;5153862;27;19923;-60
2022/05/31 01:01:07;;;;;;;;;;;;;;;8.45;100.00;98891.75;5153691;27;19930;-60
2022/05/31 01:03:37;;;;;;;;;;;;;;;8.54;100.00;98891.53;5153760;27;19971;-61
2022/05/31 01:06:03;;;;;;;;;;;;;;;8.41;100.00;98901.00;5153469;27;20290;-61
2022/05/31 01:08:29;;;;;;;;;;;;;;;8.40;100.00;98892.03;5153783;27;19948;-61
2022/05/31 01:10:55;;;;;;;;;;;;;;;8.28;100.00;98902.25;5153290;27;20385;-61
2022/05/31 01:13:21;;;;;;;;;;;;;;;8.23;100.00;98893.19;5153591;27;19930;-60
2022/05/31 01:15:50;;;;;;;;;;;;;;;8.28;100.00;98891.31;5153262;27;19923;-60
2022/05/31 01:18:16;;;;;;;;;;;;;;;8.24;100.00;98889.31;5153357;27;19923;-61
2022/05/31 01:20:43;;;;;;;;;;;;;;;8.24;100.00;98891.25;5153221;27;19949;-61
2022/05/31 01:23:10;;;;;;;;;;;;;;;8.13;100.00;98890.19;5153260;27;20271;-60
2022/05/31 01:25:41;;;;;;;;;;;;;;;8.23;100.00;98886.91;5153334;27;19927;-60
2022/05/31 01:28:12;;;;;;;;;;;;;;;8.28;100.00;98883.91;5152752;27;19923;-60
2022/05/31 01:30:41;;;;;;;;;;;;;;;8.24;100.00;98888.50;5153292;27;19927;-61
2022/05/31 01:33:09;;;;;;;;;;;;;;;8.14;100.00;98897.25;5153014;27;19930;-61
2022/05/31 01:35:35;;;;;;;;;;;;;;;8.12;100.00;98899.53;5153255;27;19930;-60
2022/05/31 01:38:04;;;;;;;;;;;;;;;8.29;100.00;98890.94;5153009;27;19923;-61
2022/05/31 01:40:35;;;;;;;;;;;;;;;8.25;100.00;98890.88;5152877;27;19923;-61
2022/05/31 01:43:01;;;;;;;;;;;;;;;8.11;100.00;98896.03;5152906;27;19930;-60
2022/05/31 01:45:32;;;;;;;;;;;;;;;8.02;100.00;98890.75;5152924;27;19958;-60
2022/05/31 01:48:01;;;;;;;;;;;;;;;8.06;100.00;98899.00;5152936;27;19922;-60
2022/05/31 01:50:27;;;;;;;;;;;;;;;8.13;100.00;98891.00;5152775;27;19922;-60
2022/05/31 01:52:53;;;;;;;;;;;;;;;8.12;100.00;98897.59;5152901;27;19923;-61
2022/05/31 01:55:20;;;;;;;;;;;;;;;8.29;100.00;98907.34;5152839;27;20361;-60
2022/05/31 01:57:48;;;;;;;;;;;;;;;8.25;100.00;98904.53;5152881;27;19923;-60
2022/05/31 02:00:14;;;;;;;;;;;;;;;8.28;100.00;98910.44;5152570;27;19971;-60
2022/05/31 02:02:41;;;;;;;;;;;;;;;8.26;100.00;98913.50;5152719;27;19930;-60
2022/05/31 02:05:07;;;;;;;;;;;;;;;8.27;100.00;98917.84;5152432;27;19930;-60
2022/05/31 02:07:33;;;;;;;;;;;;;;;8.12;100.00;98919.44;5152637;27;19938;-60
2022/05/31 02:09:59;;;;;;;;;;;;;;;8.25;100.00;98934.56;5152455;27;20379;-60
2022/05/31 02:12:28;;;;;;;;;;;;;;;8.30;100.00;98932.72;5152464;27;19992;-60
2022/05/31 02:14:54;;;;;;;;;;;;;;;8.29;100.00;98939.31;5152316;27;19930;-61
2022/05/31 02:17:20;;;;;;;;;;;;;;;8.31;100.00;98945.25;5152426;27;19923;-61
2022/05/31 02:19:46;;;;;;;;;;;;;;;8.34;100.00;98947.25;5152381;27;19926;-60
2022/05/31 02:22:14;;;;;;;;;;;;;;;8.40;100.00;98951.34;5152381;27;19930;-60
2022/05/31 02:24:40;;;;;;;;;;;;;;;8.65;100.00;98954.63;5152479;27;19922;-61
2022/05/31 02:27:07;;;;;;;;;;;;;;;8.74;100.00;98965.38;5152172;27;19923;-60
2022/05/31 02:29:34;;;;;;;;;;;;;;;8.70;100.00;98974.28;5152284;27;19948;-60
2022/05/31 02:32:02;;;;;;;;;;;;;;;9.26;100.00;98984.00;5152104;27;19923;-60
2022/05/31 02:34:29;;;;;;;;;;;;;;;9.17;100.00;99008.88;5152127;27;19933;-61
2022/05/31 02:36:55;;;;;;;;;;;;;;;9.14;100.00;99019.72;5152018;27;19946;-61
2022/05/31 02:39:21;;;;;;;;;;;;;;;8.54;100.00;99033.63;5151064;27;19923;-61
2022/05/31 02:41:47;;;;;;;;;;;;;;;8.81;100.00;99031.13;5151751;27;19923;-61
2022/05/31 02:44:14;;;;;;;;;;;;;;;9.12;100.00;99043.91;5151801;27;19930;-60
2022/05/31 02:46:41;;;;;;;;;;;;;;;9.05;100.00;99046.47;5152326;27;20285;-61
2022/05/31 02:49:07;;;;;;;;;;;;;;;9.39;100.00;99056.59;5152030;27;19923;-60
2022/05/31 02:51:33;;;;;;;;;;;;;;;9.58;100.00;99074.19;5151727;27;20413;-61
2022/05/31 02:53:59;;;;;;;;;;;;;;;9.63;100.00;99093.06;5151741;27;19923;-61
2022/05/31 02:56:25;;;;;;;;;;;;;;;9.56;100.00;99095.63;5152107;27;19930;-61
2022/05/31 02:58:51;;;;;;;;;;;;;;;9.77;100.00;99114.44;5151738;27;19975;-61
2022/05/31 03:01:18;;;;;;;;;;;;;;;10.48;100.00;99120.50;5151994;27;20006;-60
2022/05/31 03:03:45;;;;;;;;;;;;;;;10.28;100.00;99145.19;5151591;27;19930;-61
2022/05/31 03:06:11;;;;;;;;;;;;;;;10.85;100.00;99164.59;5151775;27;19964;-61
2022/05/31 03:08:36;;;;;;;;;;;;;;;10.72;100.00;99205.13;5151752;27;19923;-61
2022/05/31 03:11:03;;;;;;;;;;;;;;;10.75;100.00;99226.31;5151428;27;19922;-61
2022/05/31 03:13:29;;;;;;;;;;;;;;;10.61;100.00;99245.25;5152104;27;19930;-61
2022/05/31 03:15:56;;;;;;;;;;;;;;;10.59;100.00;99250.31;5151719;27;19923;-60
2022/05/31 03:18:24;;;;;;;;;;;;;;;10.28;100.00;99256.75;5151938;27;19999;-61
2022/05/31 03:20:53;;;;;;;;;;;;;;;10.36;100.00;99253.00;5151651;27;19923;-61
2022/05/31 03:23:22;;;;;;;;;;;;;;;10.49;100.00;99270.09;5151342;27;19923;-61
2022/05/31 03:25:49;;;;;;;;;;;;;;;10.56;100.00;99264.72;5151327;27;19923;-61
2022/05/31 03:28:15;;;;;;;;;;;;;;;10.35;100.00;99271.38;5151580;27;20400;-61
2022/05/31 03:30:41;;;;;;;;;;;;;;;10.29;100.00;99272.03;5151357;27;20450;-61
2022/05/31 03:33:09;;;;;;;;;;;;;;;10.11;100.00;99268.91;5151474;27;19927;-61
2022/05/31 03:35:35;;;;;;;;;;;;;;;9.99;100.00;99264.31;5151311;27;19930;-61
2022/05/31 03:38:02;;;;;;;;;;;;;;;10.51;100.00;99254.06;5151208;27;20313;-61
2022/05/31 03:43:12;;;;;;;;;;;;;;;10.45;100.00;99274.69;5151161;27;20430;-60
2022/05/31 03:45:38;;;;;;;;;;;;;;;10.43;100.00;99272.34;5151439;27;19923;-60
2022/05/31 03:48:05;;;;;;;;;;;;;;;10.80;100.00;99280.88;5151152;27;19941;-60
2022/05/31 03:50:31;;;;;;;;;;;;;;;11.05;100.00;99306.00;5151435;27;20274;-60
2022/05/31 03:52:57;;;;;;;;;;;;;;;11.32;100.00;99330.78;5154504;27;19930;-60
2022/05/31 03:55:24;;;;;;;;;;;;;;;11.86;100.00;99356.41;5154887;27;19992;-60
2022/05/31 03:57:50;;;;;;;;;;;;;;;12.27;100.00;99403.38;5154532;27;19923;-60
2022/05/31 04:00:17;;;;;;;;;;;;;;;12.06;100.00;99448.56;5154675;27;19923;-60
2022/05/31 04:02:43;;;;;;;;;;;;;;;12.36;100.00;99467.13;5154462;27;19929;-60
2022/05/31 04:05:09;;;;;;;;;;;;;;;12.06;100.00;99502.75;5154445;27;19950;-61
2022/05/31 04:07:35;;;;;;;;;;;;;;;12.02;100.00;99511.72;5154410;27;19923;-61
2022/05/31 04:10:03;;;;;;;;;;;;;;;11.80;100.00;99515.25;5154462;27;19922;-61
2022/05/31 04:12:30;;;;;;;;;;;;;;;11.83;100.00;99517.25;5154632;27;19927;-61
2022/05/31 04:14:56;;;;;;;;;;;;;;;11.76;100.00;99525.34;5154359;27;19962;-60
2022/05/31 04:17:22;;;;;;;;;;;;;;;11.78;100.00;99520.28;5154604;27;19923;-61
2022/05/31 04:19:48;;;;;;;;;;;;;;;11.65;100.00;99522.41;5154144;27;19923;-61
2022/05/31 04:22:13;;;;;;;;;;;;;;;11.49;100.00;99518.94;5154554;27;20025;-60
2022/05/31 04:24:39;;;;;;;;;;;;;;;11.45;100.00;99490.63;5154284;27;20018;-60
2022/05/31 04:27:06;;;;;;;;;;;;;;;11.22;100.00;99504.28;5154102;27;19922;-61
2022/05/31 04:29:34;;;;;;;;;;;;;;;11.14;100.00;99481.41;5154155;27;20018;-60
2022/05/31 04:32:00;;;;;;;;;;;;;;;11.45;100.00;99469.47;5153782;27;19930;-61
2022/05/31 04:34:27;;;;;;;;;;;;;;;11.78;100.00;99487.31;5153877;27;20339;-61
2022/05/31 04:36:52;;;;;;;;;;;;;;;11.75;100.00;99501.78;5154016;27;19923;-61
2022/05/31 04:39:18;;;;;;;;;;;;;;;11.77;100.00;99503.03;5153879;27;19995;-61
2022/05/31 04:41:45;;;;;;;;;;;;;;;11.71;100.00;99511.91;5153778;27;19923;-60
2022/05/31 04:44:11;;;;;;;;;;;;;;;11.90;100.00;99524.88;5154017;27;19927;-60
2022/05/31 04:46:37;;;;;;;;;;;;;;;11.60;100.00;99541.94;5153660;27;19923;-60
2022/05/31 04:49:04;;;;;;;;;;;;;;;11.62;100.00;99523.13;5153921;27;19929;-61
2022/05/31 04:51:32;;;;;;;;;;;;;;;11.84;100.00;99520.78;5153757;27;19923;-61
2022/05/31 04:53:58;;;;;;;;;;;;;;;11.34;100.00;99544.53;5153889;27;20408;-60
2022/05/31 04:56:24;;;;;;;;;;;;;;;11.73;100.00;99529.63;5153746;27;19935;-60
2022/05/31 04:58:51;;;;;;;;;;;;;;;11.70;100.00;99541.34;5153764;27;20452;-61
2022/05/31 05:01:17;;;;;;;;;;;;;;;12.12;100.00;99562.53;5153770;27;20629;-61
2022/05/31 05:03:44;;;;;;;;;;;;;;;12.63;100.00;99573.25;5152465;27;19923;-61
2022/05/31 05:06:11;;;;;;;;;;;;;;;12.20;100.00;99607.47;5153700;27;20373;-61
2022/05/31 05:08:38;;;;;;;;;;;;;;;11.79;100.00;99631.75;5153662;27;20404;-61
2022/05/31 05:11:07;;;;;;;;;;;;;;;11.98;100.00;99612.53;5153639;27;19941;-61
2022/05/31 05:13:33;;;;;;;;;;;;;;;12.04;100.00;99626.78;5153319;27;20274;-61
2022/05/31 05:15:59;;;;;;;;;;;;;;;12.34;100.00;99637.16;5153722;27;20438;-61
2022/05/31 05:18:26;;;;;;;;;;;;;;;13.41;100.00;99656.22;5153644;27;19922;-60
2022/05/31 05:20:52;;;;;;;;;;;;;;;13.71;100.00;99677.50;5153515;27;19923;-61
2022/05/31 05:23:18;;;;;;;;;;;;;;;13.64;100.00;99658.91;5153369;27;19927;-60
2022/05/31 05:25:47;;;;;;;;;;;;;;;14.95;100.00;99602.72;5153124;27;19923;-60
2022/05/31 05:30:57;;;;;;;;;;;;;;;16.12;100.00;99255.22;5152959;27;19930;-61
2022/05/31 05:33:23;;;;;;;;;;;;;;;16.73;100.00;99041.81;5153054;27;19923;-61
2022/05/31 05:35:49;;;;;;;;;;;;;;;17.04;100.00;98913.38;5152936;27;19926;-61
2022/05/31 05:38:15;;;;;;;;;;;;;;;17.14;100.00;98787.03;5153122;27;20013;-61
2022/05/31 05:40:41;;;;;;;;;;;;;;;16.53;100.00;98699.28;5152706;27;19922;-61
2022/05/31 05:43:08;;;;;;;;;;;;;;;17.05;100.00;98850.44;5152747;27;19923;-61
2022/05/31 05:45:34;;;;;;;;;;;;;;;17.71;100.00;98643.97;5152671;27;19942;-61
2022/05/31 05:47:59;;;;;;;;;;;;;;;17.67;100.00;98632.16;5152963;27;19923;-61
2022/05/31 05:50:25;;;;;;;;;;;;;;;16.45;100.00;98673.66;5152642;27;19923;-61
2022/05/31 05:52:54;;;;;;;;;;;;;;;16.30;100.00;98730.41;5152522;27;19922;-61
2022/05/31 05:55:21;;;;;;;;;;;;;;;15.61;100.00;98797.81;5152452;27;19942;-61
2022/05/31 05:57:47;;;;;;;;;;;;;;;16.50;100.00;98974.03;5152286;27;20447;-61
2022/05/31 06:00:13;;;;;;;;;;;;;;;17.27;100.00;98785.25;5152427;27;19926;-60
2022/05/31 06:02:41;;;;;;;;;;;;;;;18.02;100.00;98655.63;5152528;27;19923;-61
2022/05/31 06:05:12;;;;;;;;;;;;;;;18.07;100.00;98578.28;5152436;27;19930;-61
2022/05/31 06:07:40;;;;;;;;;;;;;;;18.99;100.00;98452.34;5152410;27;19923;-61
2022/05/31 06:10:08;;;;;;;;;;;;;;;18.84;100.00;98295.63;5152573;27;19923;-61
2022/05/31 06:12:37;;;;;;;;;;;;;;;20.08;100.00;98242.81;5152035;27;19971;-61
2022/05/31 06:15:05;;;;;;;;;;;;;;;20.41;100.00;98197.91;5152225;27;19923;-61
2022/05/31 06:17:33;;;;;;;;;;;;;;;20.86;100.00;98163.97;5152194;27;19922;-61
2022/05/31 06:20:01;;;;;;;;;;;;;;;21.04;100.00;98151.34;5152120;27;20013;-61
2022/05/31 06:22:28;;;;;;;;;;;;;;;20.87;100.00;98162.75;5152268;27;19966;-61
2022/05/31 06:24:54;;;;;;;;;;;;;;;20.85;100.00;98164.44;5152030;27;19930;-61
2022/05/31 06:27:20;;;;;;;;;;;;;;;20.16;100.00;98162.66;5152080;27;20354;-61
2022/05/31 06:29:47;;;;;;;;;;;;;;;20.00;100.00;98174.75;5152083;27;19962;-61
2022/05/31 06:32:14;;;;;;;;;;;;;;;20.76;100.00;98178.31;5152064;27;20278;-61
2022/05/31 06:34:40;;;;;;;;;;;;;;;21.61;100.00;98182.44;5151964;27;19930;-61
2022/05/31 06:37:07;;;;;;;;;;;;;;;21.89;100.00;98172.06;5152151;27;19923;-61
2022/05/31 06:39:35;;;;;;;;;;;;;;;21.51;100.00;98186.47;5151731;27;19967;-61
2022/05/31 06:42:01;;;;;;;;;;;;;;;21.32;100.00;98174.47;5151774;27;19967;-63
2022/05/31 06:44:26;;;;;;;;;;;;;;;21.00;100.00;98182.13;5151527;27;19926;-62
2022/05/31 06:46:53;;;;;;;;;;;;;;;21.61;100.00;98194.38;5151742;27;19923;-60
2022/05/31 06:49:19;;;;;;;;;;;;;;;21.50;100.00;98187.72;5151426;27;19927;-61
2022/05/31 06:57:14;;;;;;;;;;;;;;;22.40;100.00;98196.53;5151606;27;20304;-62
2022/05/31 06:59:40;;;;;;;;;;;;;;;22.65;100.00;98216.97;5151623;27;20037;-62
2022/05/31 07:02:06;;;;;;;;;;;;;;;22.85;100.00;98277.91;5151543;27;19929;-62
2022/05/31 07:04:34;;;;;;;;;;;;;;;22.88;100.00;98260.97;5151646;27;20400;-62
2022/05/31 07:07:00;;;;;;;;;;;;;;;22.82;100.00;98306.78;5151452;27;19923;-60
2022/05/31 07:09:26;;;;;;;;;;;;;;;23.07;100.00;98372.78;5151567;27;19923;-61
2022/05/31 07:11:52;;;;;;;;;;;;;;;23.15;100.00;98371.19;5151051;27;19930;-60
2022/05/31 07:14:18;;;;;;;;;;;;;;;23.02;100.00;98301.50;5151282;27;19923;-61
2022/05/31 07:16:43;;;;;;;;;;;;;;;23.36;100.00;98398.19;5151672;27;19957;-61
2022/05/31 07:19:10;;;;;;;;;;;;;;;23.22;100.00;98310.13;5151334;27;20398;-61
2022/05/31 07:21:36;;;;;;;;;;;;;;;23.99;100.00;98389.22;5151072;27;19923;-61
2022/05/31 07:24:02;;;;;;;;;;;;;;;23.61;100.00;98397.00;5151155;27;19948;-61
2022/05/31 07:26:28;;;;;;;;;;;;;;;23.85;100.00;98471.88;5153103;27;19934;-61
2022/05/31 07:28:54;;;;;;;;;;;;;;;23.90;100.00;98441.22;5154893;27;20003;-62
2022/05/31 07:31:20;;;;;;;;;;;;;;;23.63;100.00;98399.34;5154686;27;19922;-62
2022/05/31 07:33:46;;;;;;;;;;;;;;;23.68;100.00;98441.47;5154624;27;20025;-60
2022/05/31 07:36:12;;;;;;;;;;;;;;;23.43;100.00;98472.59;5154901;27;19946;-60
2022/05/31 07:38:38;;;;;;;;;;;;;;;24.20;100.00;98480.59;5154659;27;19930;-59
2022/05/31 07:41:04;;;;;;;;;;;;;;;24.30;100.00;98478.53;5154608;27;19929;-60
2022/05/31 07:43:30;;;;;;;;;;;;;;;24.19;100.00;98537.84;5154718;27;20366;-60
2022/05/31 07:46:01;;;;;;;;;;;;;;;24.18;100.00;98491.50;5154312;27;19927;-59
2022/05/31 07:48:26;;;;;;;;;;;;;;;24.42;100.00;98531.56;5154492;27;19930;-62
2022/05/31 07:50:52;;;;;;;;;;;;;;;24.55;100.00;98525.72;5154606;27;19922;-59
2022/05/31 07:53:19;;;;;;;;;;;;;;;24.72;100.00;98486.84;5154437;27;20335;-60
2022/05/31 07:55:52;;;;;;;;;;;;;;;25.11;100.00;98566.22;5154337;27;19922;-60
2022/05/31 07:58:33;;;;;;;;;;;;;;;24.69;100.00;98577.50;5154674;27;19927;-60
2022/05/31 08:01:00;;;;;;;;;;;;;;;24.58;100.00;98580.81;5154458;27;19923;-60
2022/05/31 08:03:26;;;;;;;;;;;;;;;24.56;100.00;98576.97;5154613;27;20383;-60
2022/05/31 08:05:53;;;;;;;;;;;;;;;24.92;100.00;98513.50;5154080;27;19923;-60
2022/05/31 08:08:20;;;;;;;;;;;;;;;24.36;100.00;98536.25;5154312;27;19954;-60
2022/05/31 08:10:46;;;;;;;;;;;;;;;25.08;100.00;98622.44;5154272;27;19972;-60
2022/05/31 08:13:12;;;;;;;;;;;;;;;24.80;100.00;98608.59;5153813;27;19922;-61
2022/05/31 08:15:38;;;;;;;;;;;;;;;24.22;100.00;98558.53;5153812;27;19923;-60
2022/05/31 08:18:04;;;;;;;;;;;;;;;24.71;100.00;98518.94;5154075;27;19923;-60
2022/05/31 08:20:30;;;;;;;;;;;;;;;24.47;100.00;98588.22;5153744;27;19922;-61
2022/05/31 08:22:56;;;;;;;;;;;;;;;24.83;100.00;98585.22;5153772;27;19922;-61
2022/05/31 08:25:22;;;;;;;;;;;;;;;25.09;100.00;98604.34;5154145;27;19930;-60
2022/05/31 08:27:48;;;;;;;;;;;;;;;25.18;100.00;98635.19;5153753;27;19933;-60
2022/05/31 08:30:14;;;;;;;;;;;;;;;25.19;100.00;98621.94;5154100;27;19923;-61
2022/05/31 08:32:41;;;;;;;;;;;;;;;25.05;100.00;98621.38;5154283;27;19923;-61
2022/05/31 08:35:07;;;;;;;;;;;;;;;23.96;100.00;98654.13;5153992;27;19934;-61
2022/05/31 08:37:33;;;;;;;;;;;;;;;24.92;100.00;98592.78;5152276;27;20297;-60
2022/05/31 08:39:59;;;;;;;;;;;;;;;25.37;100.00;98635.06;5153536;27;19923;-60
2022/05/31 08:42:30;;;;;;;;;;;;;;;25.58;100.00;98685.25;5153712;27;19923;-60
2022/05/31 08:44:59;;;;;;;;;;;;;;;25.46;100.00;98699.53;5153699;27;19939;-61
2022/05/31 08:47:36;;;;;;;;;;;;;;;25.53;100.00;98665.53;5153475;27;19948;-61
2022/05/31 08:53:08;;;;;;;;;;;;;;;25.97;100.00;98690.16;5153812;27;19976;-62
2022/05/31 08:58:24;;;;;;;;;;;;;;;25.94;100.00;98705.16;5153436;27;20450;-60
2022/05/31 09:00:52;;;;;;;;;;;;;;;25.49;100.00;98695.78;5153514;27;19930;-60
2022/05/31 09:03:20;;;;;;;;;;;;;;;25.95;100.00;98692.66;5153582;27;19922;-60
2022/05/31 09:05:49;;;;;;;;;;;;;;;26.13;100.00;98686.88;5152882;27;19923;-60
2022/05/31 09:08:18;;;;;;;;;;;;;;;26.29;100.00;98682.78;5153512;27;19922;-65
2022/05/31 09:10:47;;;;;;;;;;;;;;;25.96;100.00;98700.59;5153132;27;19922;-61
2022/05/31 09:13:17;;;;;;;;;;;;;;;25.56;100.00;98715.84;5153162;27;19923;-60
2022/05/31 09:15:45;;;;;;;;;;;;;;;25.29;100.00;98676.72;5153184;27;19929;-61
2022/05/31 09:18:15;;;;;;;;;;;;;;;24.58;100.00;98678.91;5153433;27;19923;-61
2022/05/31 09:20:46;;;;;;;;;;;;;;;24.60;100.00;98720.47;5153342;27;20297;-62
2022/05/31 09:23:15;;;;;;;;;;;;;;;25.26;100.00;98722.59;5153213;27;19971;-62
2022/05/31 09:25:41;;;;;;;;;;;;;;;25.10;100.00;98626.34;5153377;27;19922;-61
2022/05/31 09:28:17;;;;;;;;;;;;;;;24.84;100.00;98654.03;5152952;27;19927;-59
2022/05/31 09:30:46;;;;;;;;;;;;;;;25.05;100.00;98693.50;5153187;27;19946;-62
2022/05/31 09:33:17;;;;;;;;;;;;;;;24.80;100.00;98692.69;5152647;27;19923;-63
2022/05/31 09:35:50;;;;;;;;;;;;;;;25.24;100.00;98722.28;5153001;27;20325;-65
2022/05/31 09:38:32;;;;;;;;;;;;;;;24.52;100.00;98761.28;5152866;27;20011;-66
2022/05/31 09:41:06;;;;;;;;;;;;;;;24.56;100.00;98666.63;5153075;27;19923;-71
2022/05/31 09:43:35;;;;;;;;;;;;;;;25.00;100.00;98765.06;5152739;27;19923;-63
2022/05/31 09:46:03;;;;;;;;;;;;;;;25.31;100.00;98747.19;5152562;27;19939;-63
2022/05/31 09:48:29;;;;;;;;;;;;;;;25.43;100.00;98765.06;5152601;27;19926;-65
2022/05/31 09:50:58;;;;;;;;;;;;;;;24.62;100.00;98772.03;5152627;27;19923;-66
2022/05/31 09:59:03;;;;;;;;;;;;;;;22.51;100.00;98450.97;5152542;27;19975;-67
2022/05/31 10:01:31;;;;;;;;;;;;;;;22.16;100.00;98393.81;5152554;27;19998;-64
2022/05/31 10:04:00;;;;;;;;;;;;;;;23.19;100.00;98434.09;5152218;27;19930;-63
2022/05/31 10:06:27;;;;;;;;;;;;;;;22.72;100.00;98549.88;5152423;27;19926;-64
2022/05/31 10:08:54;;;;;;;;;;;;;;;22.98;100.00;98583.97;5152261;27;20021;-64
2022/05/31 10:11:23;;;;;;;;;;;;;;;23.24;100.00;98533.34;5152429;27;19952;-63
2022/05/31 10:13:55;;;;;;;;;;;;;;;22.75;100.00;98581.72;5152401;27;20025;-64
2022/05/31 10:16:24;;;;;;;;;;;;;;;22.57;100.00;98635.53;5152637;27;19923;-66
2022/05/31 10:18:52;;;;;;;;;;;;;;;22.05;100.00;98651.78;5152426;27;19980;-64
2022/05/31 10:21:30;;;;;;;;;;;;;;;22.54;100.00;98539.44;5152198;27;19923;-65
2022/05/31 10:23:59;;;;;;;;;;;;;;;22.59;100.00;98612.69;5151780;27;19929;-68
2022/05/31 10:26:26;;;;;;;;;;;;;;;22.29;100.00;98590.72;5152249;27;19930;-66
2022/05/31 10:28:54;;;;;;;;;;;;;;;21.97;100.00;98619.81;5152519;27;19930;-57
2022/05/31 10:31:21;;;;;;;;;;;;;;;22.32;100.00;98653.22;5152080;27;20333;-56
2022/05/31 10:33:52;;;;;;;;;;;;;;;22.47;100.00;98606.78;5152363;27;19923;-63
2022/05/31 10:36:20;;;;;;;;;;;;;;;23.05;100.00;98607.28;5151905;27;20308;-63
2022/05/31 10:38:47;;;;;;;;;;;;;;;23.11;100.00;98704.06;5151937;27;19927;-65
2022/05/31 10:41:19;;;;;;;;;;;;;;;23.06;100.00;98647.97;5151829;27;19923;-66
2022/05/31 10:43:46;;;;;;;;;;;;;;;23.15;100.00;98673.94;5151897;27;19972;-67
2022/05/31 10:46:14;;;;;;;;;;;;;;;22.69;100.00;98645.81;5151966;27;19923;-63
2022/05/31 10:48:46;;;;;;;;;;;;;;;22.76;100.00;98658.72;5151846;27;19929;-60
2022/05/31 10:51:16;;;;;;;;;;;;;;;22.91;100.00;98701.63;5151933;27;19923;-63
2022/05/31 10:53:48;;;;;;;;;;;;;;;22.15;100.00;98665.81;5151217;27;19930;-64
2022/05/31 10:56:16;;;;;;;;;;;;;;;22.25;100.00;98712.13;5151846;27;19931;-66
2022/05/31 10:58:47;;;;;;;;;;;;;;;22.53;100.00;98640.47;5151697;27;20309;-65
2022/05/31 11:01:18;;;;;;;;;;;;;;;22.60;100.00;98650.59;5150396;27;19930;-66
2022/05/31 11:03:52;;;;;;;;;;;;;;;22.60;100.00;98597.50;5151670;27;19927;-64
2022/05/31 11:06:31;;;;;;;;;;;;;;;22.29;100.00;98732.31;5151573;27;19951;-64
2022/05/31 11:11:55;;;;;;;;;;;;;;;21.56;100.00;98632.09;5151433;27;19942;-65
2022/05/31 11:14:30;;;;;;;;;;;;;;;21.26;100.00;98705.94;5151737;27;19930;-64
2022/05/31 11:17:03;;;;;;;;;;;;;;;21.32;100.00;98632.44;5151375;27;20488;-65
2022/05/31 11:19:36;;;;;;;;;;;;;;;20.06;100.00;98704.38;5151535;27;19927;-64
2022/05/31 11:22:13;;;;;;;;;;;;;;;20.65;100.00;98555.47;5151315;27;19930;-65
2022/05/31 11:24:49;;;;;;;;;;;;;;;20.09;100.00;98624.78;5151360;27;19975;-65
2022/05/31 11:27:21;;;;;;;;;;;;;;;20.56;100.00;98551.78;5151382;27;19945;-64
2022/05/31 11:29:57;;;;;;;;;;;;;;;19.67;100.00;98556.06;5151608;27;19930;-64
2022/05/31 11:32:30;;;;;;;;;;;;;;;20.24;100.00;98575.06;5151148;27;20020;-64
2022/05/31 11:35:09;;;;;;;;;;;;;;;20.42;100.00;98567.69;5151097;27;19922;-64
2022/05/31 11:37:43;;;;;;;;;;;;;;;20.91;100.00;98600.00;5150845;27;19922;-64
2022/05/31 11:40:19;;;;;;;;;;;;;;;21.19;100.00;98656.00;5151209;27;19930;-64
2022/05/31 11:43:10;;;;;;;;;;;;;;;21.49;100.00;98629.53;5151085;27;19923;-64
2022/05/31 11:45:42;;;;;;;;;;;;;;;21.38;100.00;98621.53;5150896;27;19924;-64
2022/05/31 11:48:16;;;;;;;;;;;;;;;21.59;100.00;98659.03;5151034;27;19976;-64
2022/05/31 11:50:47;;;;;;;;;;;;;;;20.44;100.00;98726.72;5151326;27;19923;-64
2022/05/31 11:53:23;;;;;;;;;;;;;;;20.23;100.00;98693.97;5150866;27;19923;-64
2022/05/31 11:55:50;;;;;;;;;;;;;;;20.51;100.00;98672.88;5150963;27;19923;-64
2022/05/31 11:58:30;;;;;;;;;;;;;;;20.22;100.00;98704.28;5150842;27;19930;-64
2022/05/31 12:01:11;;;;;;;;;;;;;;;20.44;100.00;98615.38;5150915;27;19930;-64
2022/05/31 12:03:44;;;;;;;;;;;;;;;20.67;100.00;98625.44;5150653;27;20017;-65
2022/05/31 12:06:15;;;;;;;;;;;;;;;21.12;100.00;98570.63;5150857;27;19923;-64
2022/05/31 12:08:46;;;;;;;;;;;;;;;20.48;100.00;98628.41;5150944;27;19923;-64
2022/05/31 12:11:16;;;;;;;;;;;;;;;20.77;100.00;98619.97;5150494;27;19923;-65
2022/05/31 12:13:44;;;;;;;;;;;;;;;20.36;100.00;98625.19;5153614;27;19923;-65
2022/05/31 12:16:11;;;;;;;;;;;;;;;20.89;100.00;98608.00;5154095;27;20402;-65
2022/05/31 12:18:41;;;;;;;;;;;;;;;21.12;100.00;98582.53;5154054;27;19930;-65
2022/05/31 12:21:10;;;;;;;;;;;;;;;20.98;100.00;98630.41;5154095;27;19929;-65
2022/05/31 12:23:41;;;;;;;;;;;;;;;20.47;100.00;98696.47;5154068;27;19930;-64
2022/05/31 12:26:16;;;;;;;;;;;;;;;20.41;100.00;98669.16;5154291;27;19976;-65
2022/05/31 12:28:46;;;;;;;;;;;;;;;19.88;100.00;98659.56;5153930;27;19923;-64
2022/05/31 12:31:17;;;;;;;;;;;;;;;19.88;100.00;98626.97;5153922;27;20339;-64
2022/05/31 12:33:43;;;;;;;;;;;;;;;20.07;100.00;98616.91;5153735;27;19922;-65
2022/05/31 12:36:10;;;;;;;;;;;;;;;20.07;100.00;98621.69;5153931;27;19930;-65
2022/05/31 12:38:57;;;;;;;;;;;;;;;20.25;100.00;98610.00;5153627;27;19930;-64
2022/05/31 12:41:34;;;;;;;;;;;;;;;19.94;100.00;98557.66;5144986;27;20386;-64
2022/05/31 12:44:00;;;;;;;;;;;;;;;20.37;100.00;98498.69;5154042;27;19926;-64
2022/05/31 12:46:33;;;;;;;;;;;;;;;20.67;100.00;98519.59;5153971;27;20308;-64
2022/05/31 12:49:01;;;;;;;;;;;;;;;20.57;100.00;98572.88;5153780;27;19923;-64
2022/05/31 12:51:28;;;;;;;;;;;;;;;20.83;100.00;98644.03;5153451;27;19930;-64
2022/05/31 12:53:56;;;;;;;;;;;;;;;20.99;100.00;98695.28;5153781;27;19929;-64
2022/05/31 12:56:37;;;;;;;;;;;;;;;21.32;100.00;98667.91;5153520;27;19930;-65
2022/05/31 12:59:04;;;;;;;;;;;;;;;21.23;100.00;98665.06;5153668;27;19923;-65
2022/05/31 13:01:37;;;;;;;;;;;;;;;21.46;100.00;98669.47;5153755;27;19948;-65
2022/05/31 13:04:17;;;;;;;;;;;;;;;20.64;100.00;98740.50;5153061;27;19927;-64
2022/05/31 13:06:58;;;;;;;;;;;;;;;20.86;100.00;98684.16;5153681;27;20237;-65
2022/05/31 13:09:35;;;;;;;;;;;;;;;20.35;100.00;98709.91;5153322;27;19923;-64